createdAt,value
2018-12-17T01:04:22.289Z,95087.74
2018-12-17T01:09:26.376Z,95093.63
2018-12-17T01:14:29.716Z,95091.04
2018-12-17T01:19:33.826Z,95101.55
2018-12-17T01:24:37.169Z,95100.11
2018-12-17T01:29:41.264Z,95101.55
2018-12-17T02:31:45.128Z,95156.28
2018-12-17T02:36:48.456Z,95164.98
2018-12-17T02:41:51.785Z,95163.81
2018-12-17T02:46:55.115Z,95170.50
2018-12-17T02:51:58.454Z,95173.59
2018-12-17T02:57:01.793Z,95181.85
2018-12-17T04:05:26.134Z,95248.88
2018-12-17T04:10:29.480Z,95246.88
2018-12-17T04:15:32.806Z,95250.70
2018-12-17T04:20:36.153Z,95263.70
2018-12-17T04:25:39.486Z,95274.47
2018-12-17T05:34:04.754Z,95362.52
2018-12-17T05:39:08.106Z,95367.75
2018-12-17T05:44:12.207Z,95378.09
2018-12-17T05:49:15.563Z,95390.19
2018-12-17T05:54:18.892Z,95391.91
2018-12-17T05:59:28.374Z,95403.69
2018-12-17T07:01:28.290Z,95479.02
2018-12-17T07:06:31.508Z,95492.66
2018-12-17T07:11:34.832Z,95492.11
2018-12-17T07:16:39.089Z,95508.63
2018-12-17T07:21:42.418Z,95517.08
2018-12-17T07:26:46.513Z,95520.03
2018-12-17T08:35:13.617Z,95636.80
2018-12-17T08:40:17.725Z,95641.54
2018-12-17T08:45:21.064Z,95657.97
2018-12-17T08:50:25.171Z,95666.30
2018-12-17T08:55:28.508Z,95674.55
2018-12-17T09:00:31.843Z,95675.02
2018-12-17T10:02:38.189Z,95701.86
2018-12-17T10:07:41.515Z,95705.44
2018-12-17T10:12:44.851Z,95702.45
2018-12-17T10:17:48.177Z,95701.00
2018-12-17T10:22:51.502Z,95707.11
2018-12-17T10:27:54.829Z,95704.41
2018-12-17T11:36:18.267Z,95732.02
2018-12-17T11:41:21.597Z,95733.83
2018-12-17T11:46:24.924Z,95739.19
2018-12-17T11:51:28.267Z,95738.37
2018-12-17T11:56:37.292Z,95740.45
2018-12-17T13:05:05.169Z,95778.98
2018-12-17T13:10:08.498Z,95785.52
2018-12-17T13:15:12.592Z,95789.87
2018-12-17T13:20:15.914Z,95791.97
2018-12-17T13:25:19.245Z,95798.17
2018-12-17T14:32:13.194Z,95873.99
2018-12-17T14:37:16.558Z,95878.92
2018-12-17T14:42:19.920Z,95878.92
2018-12-17T14:47:23.304Z,95894.55
2018-12-17T14:52:26.644Z,95901.00
2018-12-17T14:57:30.360Z,95901.02
2018-12-17T16:05:53.198Z,95991.13
2018-12-17T16:10:56.539Z,95987.09
2018-12-17T16:15:59.871Z,95995.73
2018-12-17T16:21:03.233Z,95999.13
2018-12-17T16:26:06.603Z,96013.01
2018-12-17T16:31:10.804Z,96014.47
2018-12-17T16:36:14.174Z,96013.07
2018-12-17T16:41:17.581Z,96021.08
2018-12-17T16:46:20.945Z,96032.52
2018-12-17T16:51:24.283Z,96034.55
2018-12-17T16:56:27.722Z,96037.94
2018-12-17T17:01:31.082Z,96044.33
2018-12-17T17:06:34.445Z,96049.61
2018-12-17T17:11:37.821Z,96053.83
2018-12-17T17:16:41.186Z,96068.73
2018-12-17T17:21:44.526Z,96069.56
2018-12-17T17:26:48.057Z,96070.55
2018-12-17T17:31:52.185Z,96071.42
2018-12-17T17:36:56.297Z,96075.87
2018-12-17T17:42:06.901Z,96080.09
2018-12-17T17:47:12.041Z,96089.31
2018-12-17T17:52:16.208Z,96099.91
2018-12-17T17:57:19.603Z,96105.23
2018-12-17T18:02:22.966Z,96106.67
2018-12-17T18:07:26.320Z,96115.91
2018-12-17T18:12:30.465Z,96140.77
2018-12-17T18:17:33.825Z,96137.97
2018-12-17T18:22:37.188Z,96149.68
2018-12-17T18:27:41.600Z,96163.64
2018-12-17T18:32:44.965Z,96168.44
2018-12-17T18:37:48.321Z,96173.63
2018-12-17T18:42:51.784Z,96186.00
2018-12-17T18:47:55.271Z,96193.20
2018-12-17T18:52:58.710Z,96203.55
2018-12-17T18:58:02.076Z,96213.22
2018-12-17T19:03:05.445Z,96207.72
2018-12-17T19:08:08.778Z,96214.60
2018-12-17T19:13:12.159Z,96214.40
2018-12-17T19:18:23.818Z,96231.02
2018-12-17T19:23:27.960Z,96231.75
2018-12-17T19:28:31.346Z,96233.44
2018-12-17T19:33:35.722Z,96242.32
2018-12-17T19:38:40.438Z,96245.38
2018-12-17T19:43:44.598Z,96247.47
2018-12-17T19:48:55.145Z,96243.91
2018-12-17T19:53:59.301Z,96252.20
2018-12-17T19:59:02.657Z,96259.55
2018-12-17T20:04:06.028Z,96266.44
2018-12-17T20:09:22.210Z,96257.28
2018-12-17T20:14:27.774Z,96260.34
2018-12-17T20:19:31.910Z,96253.64
2018-12-17T20:24:39.089Z,96261.87
2018-12-17T20:29:42.473Z,96256.71
2018-12-17T20:34:45.835Z,96265.10
2018-12-17T20:39:49.177Z,96273.37
2018-12-17T20:44:52.584Z,96279.93
2018-12-17T20:49:56.816Z,96294.66
2018-12-17T20:55:02.815Z,96294.63
2018-12-17T21:00:07.054Z,96292.69
2018-12-17T21:05:10.425Z,96301.60
2018-12-17T21:10:13.787Z,96300.12
2018-12-17T21:15:17.182Z,96302.26
2018-12-17T21:20:26.400Z,96305.50
2018-12-17T21:25:29.750Z,96303.65
2018-12-17T21:30:33.214Z,96311.08
2018-12-17T21:35:36.553Z,96308.19
2018-12-17T21:40:39.916Z,96320.55
2018-12-17T21:45:43.329Z,96324.30
2018-12-17T21:50:47.457Z,96322.37
2018-12-17T21:55:50.805Z,96326.67
2018-12-17T22:00:54.208Z,96323.54
2018-12-17T22:05:57.557Z,96325.13
2018-12-17T22:11:00.907Z,96321.17
2018-12-17T22:34:35.593Z,96331.83
2018-12-17T22:58:12.253Z,96321.78
2018-12-17T23:34:56.931Z,96316.66
2018-12-17T23:40:01.025Z,96324.06
2018-12-17T23:45:04.351Z,96330.23
2018-12-17T23:50:07.700Z,96338.23
2018-12-17T23:55:11.030Z,96318.59
